Historyczne dane pomiarowe

Dodano dane terminowe – wersja testowa.

Dane z okresu 1951-2019

Wersja bazy: 1.32 [2019-02-07, lista zmian], aktualizacja planowana na 2019-03-07

Dane meteo z obszaru Polski uzyskane na podstawie danych udostępnionych przez Instytut Meteorologii i Gospodarki Wodnej – Państwowy Instytut Badawczy.

 

Wybierz Datę:    

       

TemperaturaWilgotnośćWiatrCiśnienieOpadyŚniegCzas trwania zjawisk
 Stacja t tx tn tng RH VA  wxwx mslp ppp RRR   cm mm wxwxwxwxwxwxwx
1974-01-14 2.9 4.8 1.1- 87.0- 6.3 4.3---- 0.5------------
1974-01-15 5.6 8.8 2.2- 93.8- 8.0 6.3---- 12.5------------
1974-01-16 5.5 10.6 3.0- 73.5- 7.0 7.7---- 9.1------------
1974-01-17 5.2 7.1 2.2- 90.8- 8.0 8.3---- 5.4------------
1974-01-18 2.9 5.0 1.4- 92.5- 8.0 3.3---- 6.2------------
1974-01-19 8.0 8.6 4.8- 94.5- 8.0 7.7---- 14.5------------
1974-01-20 6.0 8.0 4.8- 89.8- 8.0 7.0---- 0.8------------
1974-01-21 4.2 6.6 2.6- 83.0- 8.0 4.7---- 0.0------------
1974-01-22 2.0 2.8 1.2- 86.3- 8.0 3.3---- 0.0------------
1974-01-23 1.0 2.2 0.5- 92.5- 5.3 2.3---- 0.2------------
1974-01-24 3.9 7.0 0.0- 89.5- 7.3 4.7---- 0.0------------
1974-01-25 5.1 6.4 3.8- 85.8- 6.7 4.3---- 0.0------------
1974-01-26 4.4 6.8 2.2- 92.5- 4.3 3.0---- 0.0------------
1974-01-27 1.7 4.6 0.0- 91.5- 6.7 2.7---- 2.3------------
1974-01-28 4.0 6.4 0.4- 84.0- 2.0 3.7---- 0.2------------
1974-01-29 5.0 6.8 3.4- 79.3- 8.0 4.7---- 2.4------------
1974-01-30 3.3 7.1 0.4- 85.0- 0.7 4.7---- 0.0------------
1974-01-31 2.8 6.1 1.0- 91.0- 4.0 5.0---- 0.1------------
1974-02-01 4.2 7.1 2.5- 94.0- 5.0 2.3---- 0.0------------
1974-02-02 3.1 6.6 1.2- 90.3- 4.3 3.3---- 0.0------------
1974-02-03 0.6 4.0 -1.4-100.0- 8.0 1.3---- 0.0------------
1974-02-04 0.0 1.6 -1.4- 98.3- 8.0 1.7---- 0.0------------
1974-02-05 -1.0 1.0 -1.8- 95.5- 8.0 4.3---- 1.8------------
1974-02-06 1.0 2.6 -0.7- 97.0- 8.0 4.7---- 2.7-- 2---------
1974-02-07 1.8 2.5 0.8- 92.5- 8.0 9.0---- 3.9------------
1974-02-08 1.7 4.2 -0.4- 73.3- 4.7 8.0---- 4.1------------
1974-02-09 4.9 9.8 -0.4- 90.8- 8.0 5.7---- 15.5-- 3---------
1974-02-10 8.2 9.4 6.3- 80.8- 5.7 8.0---- 0.0------------
1974-02-11 9.4 13.6 6.2- 66.8- 7.3 8.3---- 0.0------------
1974-02-12 10.7 13.1 8.7- 60.8- 3.7 5.3---- 0.0------------
193.2 ms

 

Źródłem pochodzenia danych jest Instytut Meteorologii i Gospodarki Wodnej – Państwowy Instytut Badawczy. Dane Instytutu Meteorologii i Gospodarki Wodnej – Państwowego Instytutu Badawczego zostały przetworzone.

Dane źródłowe można odnaleźć na stronie https://dane.imgw.pl